A- A+ FrançaisEnglishEspañol中国

le plus proche LFBT Tarbes-Lourdes-PyrénéesLFPG Paris-Charles-De-Gaulle LFRB Brest-Guipavas LFPM Melun-Villaroche

manche à air

La météo aéronautique pour les pilotes, la préparation du vol avec les METAR (METeorological Aerodrome Report, message d'observation des conditions météorologiques pour l'aviation) et Les TAF (Terminal Aerodrome Forecast : message de prévision à court terme des conditions météorologiques pour l'aviation). Et les autres ressources comme les VAC (Visual Approch Chart) et les NOTAM (Notice To Airman) pour préprer les vols.

Aéroport El Borma (Tunisie) / OACI DTTR/ IATA EBM

L'altitude de l'aéroport El Borma est de 252 m=827 ft. Il est situé à proximité de El Borma (Tunisie). La météo générale à 5 jours est disponible pour Gouvernorat de Tataouine situé à 77.7 km.

METAR de l'aéroport El Borma - DTTR

DTTR 291900Z AUTO 05007KT 010V080 NCD 10/M00 Q1027

Décodage du METAR de l'aéroport El Borma (TN)

METAR émis par DTTR le dimanche 29 décembre 2019 à 19:00 heure TU. C'est un METAR généré automatiquement. Attention ce METAR est obsolète car il a été émis il y a 19 heure et 18 minutes.

La visibilité est de 0 km=0 sm.

La température est de 10°C=50 °F et le point rosée est de 0°C=32 °F . Ce qui correspond à 50% d'humidité relative.

Le QNH est de 1027 hPa=30.33 inHg

Vent de 7 kt=13 km/h, orienté à 50°.

Pas de nuages.

TAF de l'aéroport El Borma - DTTR

DTTR 291800Z 2919/3004 36017KT 9999 SCT023

DTTR 291800Z 2919/3004 36017KT 9999 nuages épars à 023

Aéroport à proximité de El Borma

Météo générale à 5 jours à Gouvernorat de Tataouine (77.7 km)DTTD Aéroport Remada (126 km)HLTD Aéroport Ghadames (178 km)DTTG Aéroport Gabes (254 km)DTTZ Aéroport Tozeur Nefta (271 km)DTTJ Aéroport Jerba Zarsis (280 km)DAUH Aéroport Hassi-Messaoud Oued (295 km)

Vue aérienne de l'aéroport El Borma

NOTAM de l'aéroport El Borma

Les NOTAM sont fournis sans aucune garantie de leur actualité. Le pilote est le seul responsable de la vérification de sa validité avant de l'utiliser opérationnellement pour préparer un vol ou l'utiliser lors de sa navigation.

Pas de NOTAM

Sources des données